Terminal Aerodrome Forecast
Issued by NWS Glasgow, MT

Home | Current Version | Previous Version | Text Only | Print | Product List | Glossary On
Versions: 1 2 3 4 5 6 7 8 9 10 11 12 13 14 15 16 17 18 19
000
FTUS45 KGGW 212000 AAD
TAFGGW
TAF AMD
KGGW 212044Z 2121/2218 VRB06KT P6SM VCTS SCT025 BKN035CB BKN050
      TEMPO 2121/2122 2SM RA BKN025
     FM212200 34008KT 6SM -SHRA OVC045
     FM220300 03009KT P6SM VCSH BKN060
     FM221500 09012KT P6SM OVC050=

USA.gov is the U.S. government's official web portal to all federal, state and local government web resources and services.